sensor_id;sensor_type;location;lat;lon;timestamp;P1;durP1;ratioP1;P2;durP2;ratioP2
76863;SDS011;65834;52.364;9.754;2023-04-25T00:02:13;17.03;;;4.63;;
76863;SDS011;65834;52.364;9.754;2023-04-25T00:04:45;14.43;;;4.10;;
76863;SDS011;65834;52.364;9.754;2023-04-25T00:07:15;13.30;;;3.85;;
76863;SDS011;65834;52.364;9.754;2023-04-25T00:09:45;16.37;;;4.30;;
76863;SDS011;65834;52.364;9.754;2023-04-25T00:12:15;13.07;;;3.57;;
76863;SDS011;65834;52.364;9.754;2023-04-25T00:14:45;14.03;;;4.23;;
76863;SDS011;65834;52.364;9.754;2023-04-25T00:17:16;13.83;;;3.97;;
76863;SDS011;65834;52.364;9.754;2023-04-25T00:19:48;13.97;;;3.60;;
76863;SDS011;65834;52.364;9.754;2023-04-25T00:22:18;12.48;;;3.60;;
76863;SDS011;65834;52.364;9.754;2023-04-25T00:24:47;13.37;;;4.40;;
76863;SDS011;65834;52.364;9.754;2023-04-25T00:27:19;14.75;;;3.83;;
76863;SDS011;65834;52.364;9.754;2023-04-25T00:29:49;14.77;;;3.87;;
76863;SDS011;65834;52.364;9.754;2023-04-25T00:32:18;11.17;;;3.73;;
76863;SDS011;65834;52.364;9.754;2023-04-25T00:34:51;12.87;;;3.30;;
76863;SDS011;65834;52.364;9.754;2023-04-25T00:37:22;13.37;;;4.00;;
76863;SDS011;65834;52.364;9.754;2023-04-25T00:39:52;13.03;;;3.90;;
76863;SDS011;65834;52.364;9.754;2023-04-25T00:42:22;12.60;;;3.97;;
76863;SDS011;65834;52.364;9.754;2023-04-25T00:44:52;12.67;;;3.73;;
76863;SDS011;65834;52.364;9.754;2023-04-25T00:47:21;13.03;;;3.73;;
76863;SDS011;65834;52.364;9.754;2023-04-25T00:49:55;11.97;;;4.03;;
76863;SDS011;65834;52.364;9.754;2023-04-25T00:52:25;12.32;;;3.70;;
76863;SDS011;65834;52.364;9.754;2023-04-25T00:54:54;12.90;;;4.97;;
76863;SDS011;65834;52.364;9.754;2023-04-25T00:57:24;11.17;;;5.17;;
76863;SDS011;65834;52.364;9.754;2023-04-25T00:59:54;13.17;;;3.33;;
76863;SDS011;65834;52.364;9.754;2023-04-25T01:02:24;13.77;;;3.73;;
76863;SDS011;65834;52.364;9.754;2023-04-25T01:04:58;12.43;;;3.80;;
76863;SDS011;65834;52.364;9.754;2023-04-25T01:07:27;14.68;;;3.40;;
76863;SDS011;65834;52.364;9.754;2023-04-25T01:09:57;14.20;;;4.50;;
76863;SDS011;65834;52.364;9.754;2023-04-25T01:12:27;13.70;;;3.83;;
76863;SDS011;65834;52.364;9.754;2023-04-25T01:14:57;15.30;;;4.10;;
76863;SDS011;65834;52.364;9.754;2023-04-25T01:17:27;12.23;;;3.93;;
76863;SDS011;65834;52.364;9.754;2023-04-25T01:20:00;15.07;;;4.57;;
76863;SDS011;65834;52.364;9.754;2023-04-25T01:22:36;13.70;;;4.23;;
76863;SDS011;65834;52.364;9.754;2023-04-25T01:25:07;15.30;;;4.53;;
76863;SDS011;65834;52.364;9.754;2023-04-25T01:27:38;10.17;;;3.73;;
76863;SDS011;65834;52.364;9.754;2023-04-25T01:30:08;13.13;;;4.43;;
76863;SDS011;65834;52.364;9.754;2023-04-25T01:32:40;14.50;;;4.60;;
76863;SDS011;65834;52.364;9.754;2023-04-25T01:35:11;15.83;;;4.27;;
76863;SDS011;65834;52.364;9.754;2023-04-25T01:37:44;12.93;;;4.20;;
76863;SDS011;65834;52.364;9.754;2023-04-25T01:42:45;13.43;;;4.70;;
76863;SDS011;65834;52.364;9.754;2023-04-25T01:45:14;13.97;;;4.70;;
76863;SDS011;65834;52.364;9.754;2023-04-25T01:47:44;15.73;;;4.57;;
76863;SDS011;65834;52.364;9.754;2023-04-25T01:50:16;12.53;;;3.87;;
76863;SDS011;65834;52.364;9.754;2023-04-25T01:52:50;15.53;;;4.97;;
76863;SDS011;65834;52.364;9.754;2023-04-25T01:55:19;13.20;;;4.82;;
76863;SDS011;65834;52.364;9.754;2023-04-25T01:57:59;14.63;;;4.10;;
76863;SDS011;65834;52.364;9.754;2023-04-25T02:00:49;13.60;;;5.03;;
76863;SDS011;65834;52.364;9.754;2023-04-25T02:03:19;12.17;;;4.60;;
76863;SDS011;65834;52.364;9.754;2023-04-25T02:05:49;15.10;;;4.50;;
76863;SDS011;65834;52.364;9.754;2023-04-25T02:08:22;13.80;;;4.47;;
76863;SDS011;65834;52.364;9.754;2023-04-25T02:10:54;15.50;;;4.60;;
76863;SDS011;65834;52.364;9.754;2023-04-25T02:13:30;13.43;;;4.43;;
76863;SDS011;65834;52.364;9.754;2023-04-25T02:16:12;14.43;;;4.57;;
76863;SDS011;65834;52.364;9.754;2023-04-25T02:18:42;12.60;;;3.90;;
76863;SDS011;65834;52.364;9.754;2023-04-25T02:21:11;14.17;;;4.10;;
76863;SDS011;65834;52.364;9.754;2023-04-25T02:23:45;14.37;;;4.67;;
76863;SDS011;65834;52.364;9.754;2023-04-25T02:26:16;11.40;;;3.70;;
76863;SDS011;65834;52.364;9.754;2023-04-25T02:28:46;14.13;;;3.80;;
76863;SDS011;65834;52.364;9.754;2023-04-25T02:31:16;14.03;;;3.70;;
76863;SDS011;65834;52.364;9.754;2023-04-25T02:33:45;12.63;;;4.50;;
76863;SDS011;65834;52.364;9.754;2023-04-25T02:36:15;17.87;;;3.67;;
76863;SDS011;65834;52.364;9.754;2023-04-25T02:38:50;10.27;;;4.05;;
76863;SDS011;65834;52.364;9.754;2023-04-25T02:41:19;13.30;;;3.50;;
76863;SDS011;65834;52.364;9.754;2023-04-25T02:43:49;11.33;;;2.83;;
76863;SDS011;65834;52.364;9.754;2023-04-25T02:46:19;10.77;;;2.90;;
76863;SDS011;65834;52.364;9.754;2023-04-25T02:49:03;12.73;;;3.37;;
76863;SDS011;65834;52.364;9.754;2023-04-25T02:51:33;13.40;;;3.47;;
76863;SDS011;65834;52.364;9.754;2023-04-25T02:54:06;13.03;;;3.10;;
76863;SDS011;65834;52.364;9.754;2023-04-25T02:56:39;11.53;;;2.90;;
76863;SDS011;65834;52.364;9.754;2023-04-25T02:59:14;12.77;;;3.30;;
76863;SDS011;65834;52.364;9.754;2023-04-25T03:01:43;15.13;;;3.23;;
76863;SDS011;65834;52.364;9.754;2023-04-25T03:04:13;16.33;;;3.17;;
76863;SDS011;65834;52.364;9.754;2023-04-25T03:06:45;16.10;;;5.40;;
76863;SDS011;65834;52.364;9.754;2023-04-25T03:09:18;13.17;;;3.00;;
76863;SDS011;65834;52.364;9.754;2023-04-25T03:11:48;15.37;;;3.33;;
76863;SDS011;65834;52.364;9.754;2023-04-25T03:14:18;15.10;;;3.33;;
76863;SDS011;65834;52.364;9.754;2023-04-25T03:16:48;17.40;;;4.07;;
76863;SDS011;65834;52.364;9.754;2023-04-25T03:19:17;14.93;;;3.87;;
76863;SDS011;65834;52.364;9.754;2023-04-25T03:21:47;14.67;;;3.27;;
76863;SDS011;65834;52.364;9.754;2023-04-25T03:24:20;13.23;;;3.40;;
76863;SDS011;65834;52.364;9.754;2023-04-25T03:26:51;13.40;;;3.03;;
76863;SDS011;65834;52.364;9.754;2023-04-25T03:29:21;19.77;;;4.50;;
76863;SDS011;65834;52.364;9.754;2023-04-25T03:31:54;14.90;;;3.37;;
76863;SDS011;65834;52.364;9.754;2023-04-25T03:34:24;14.97;;;3.10;;
76863;SDS011;65834;52.364;9.754;2023-04-25T03:36:55;14.07;;;3.40;;
76863;SDS011;65834;52.364;9.754;2023-04-25T03:39:27;11.60;;;2.70;;
76863;SDS011;65834;52.364;9.754;2023-04-25T03:41:57;14.77;;;3.75;;
76863;SDS011;65834;52.364;9.754;2023-04-25T03:44:28;14.37;;;3.00;;
76863;SDS011;65834;52.364;9.754;2023-04-25T03:46:58;12.17;;;3.37;;
76863;SDS011;65834;52.364;9.754;2023-04-25T03:49:28;15.77;;;3.60;;
76863;SDS011;65834;52.364;9.754;2023-04-25T03:52:00;11.15;;;3.25;;
76863;SDS011;65834;52.364;9.754;2023-04-25T03:54:37;20.93;;;3.73;;
76863;SDS011;65834;52.364;9.754;2023-04-25T03:57:10;14.73;;;3.17;;
76863;SDS011;65834;52.364;9.754;2023-04-25T03:59:41;15.23;;;4.13;;
76863;SDS011;65834;52.364;9.754;2023-04-25T04:02:13;14.47;;;3.60;;
76863;SDS011;65834;52.364;9.754;2023-04-25T04:04:43;12.77;;;3.07;;
76863;SDS011;65834;52.364;9.754;2023-04-25T04:07:13;13.37;;;3.63;;
76863;SDS011;65834;52.364;9.754;2023-04-25T04:09:48;17.08;;;3.65;;
76863;SDS011;65834;52.364;9.754;2023-04-25T04:12:24;13.90;;;3.43;;
76863;SDS011;65834;52.364;9.754;2023-04-25T04:14:54;16.50;;;3.70;;
76863;SDS011;65834;52.364;9.754;2023-04-25T04:17:24;21.37;;;4.17;;
76863;SDS011;65834;52.364;9.754;2023-04-25T04:19:54;15.63;;;3.50;;
76863;SDS011;65834;52.364;9.754;2023-04-25T04:22:24;19.67;;;3.53;;
76863;SDS011;65834;52.364;9.754;2023-04-25T04:25:00;18.57;;;3.20;;
76863;SDS011;65834;52.364;9.754;2023-04-25T04:27:51;15.83;;;3.77;;
76863;SDS011;65834;52.364;9.754;2023-04-25T04:30:27;13.53;;;3.17;;
76863;SDS011;65834;52.364;9.754;2023-04-25T04:33:00;19.37;;;3.67;;
76863;SDS011;65834;52.364;9.754;2023-04-25T04:35:30;17.47;;;4.83;;
76863;SDS011;65834;52.364;9.754;2023-04-25T04:38:00;13.67;;;3.20;;
76863;SDS011;65834;52.364;9.754;2023-04-25T04:43:14;17.33;;;3.90;;
76863;SDS011;65834;52.364;9.754;2023-04-25T04:46:01;16.50;;;3.70;;
76863;SDS011;65834;52.364;9.754;2023-04-25T04:48:52;17.67;;;4.17;;
76863;SDS011;65834;52.364;9.754;2023-04-25T04:51:41;15.43;;;3.00;;
76863;SDS011;65834;52.364;9.754;2023-04-25T04:54:36;13.17;;;3.33;;
76863;SDS011;65834;52.364;9.754;2023-04-25T04:57:28;17.50;;;2.83;;
76863;SDS011;65834;52.364;9.754;2023-04-25T05:03:08;16.73;;;3.90;;
76863;SDS011;65834;52.364;9.754;2023-04-25T05:05:48;12.07;;;3.00;;
76863;SDS011;65834;52.364;9.754;2023-04-25T05:08:36;16.73;;;3.00;;
76863;SDS011;65834;52.364;9.754;2023-04-25T05:11:09;19.57;;;3.47;;
76863;SDS011;65834;52.364;9.754;2023-04-25T05:14:04;17.73;;;3.67;;
76863;SDS011;65834;52.364;9.754;2023-04-25T05:16:43;16.27;;;3.40;;
76863;SDS011;65834;52.364;9.754;2023-04-25T05:19:29;15.90;;;3.40;;
76863;SDS011;65834;52.364;9.754;2023-04-25T05:22:17;18.10;;;3.03;;
76863;SDS011;65834;52.364;9.754;2023-04-25T05:24:59;13.82;;;3.72;;
76863;SDS011;65834;52.364;9.754;2023-04-25T05:27:48;16.97;;;3.63;;
76863;SDS011;65834;52.364;9.754;2023-04-25T05:30:30;16.27;;;4.40;;
76863;SDS011;65834;52.364;9.754;2023-04-25T05:33:08;14.60;;;3.23;;
76863;SDS011;65834;52.364;9.754;2023-04-25T05:35:38;17.17;;;3.80;;
76863;SDS011;65834;52.364;9.754;2023-04-25T05:38:07;19.03;;;3.40;;
76863;SDS011;65834;52.364;9.754;2023-04-25T05:40:57;18.73;;;3.07;;
76863;SDS011;65834;52.364;9.754;2023-04-25T05:43:55;21.30;;;3.70;;
76863;SDS011;65834;52.364;9.754;2023-04-25T05:46:50;18.65;;;3.72;;
76863;SDS011;65834;52.364;9.754;2023-04-25T05:49:29;15.33;;;3.30;;
76863;SDS011;65834;52.364;9.754;2023-04-25T05:52:19;13.07;;;4.53;;
76863;SDS011;65834;52.364;9.754;2023-04-25T05:57:32;17.97;;;3.60;;
76863;SDS011;65834;52.364;9.754;2023-04-25T06:00:02;14.13;;;2.90;;
76863;SDS011;65834;52.364;9.754;2023-04-25T06:02:45;16.87;;;3.30;;
76863;SDS011;65834;52.364;9.754;2023-04-25T06:05:15;15.73;;;3.30;;
76863;SDS011;65834;52.364;9.754;2023-04-25T06:07:46;14.83;;;3.43;;
76863;SDS011;65834;52.364;9.754;2023-04-25T06:10:16;23.33;;;4.03;;
76863;SDS011;65834;52.364;9.754;2023-04-25T06:12:46;16.37;;;4.00;;
76863;SDS011;65834;52.364;9.754;2023-04-25T06:15:17;18.63;;;3.37;;
76863;SDS011;65834;52.364;9.754;2023-04-25T06:17:56;14.97;;;2.97;;
76863;SDS011;65834;52.364;9.754;2023-04-25T06:20:26;13.95;;;3.25;;
76863;SDS011;65834;52.364;9.754;2023-04-25T06:22:57;14.15;;;3.08;;
76863;SDS011;65834;52.364;9.754;2023-04-25T06:26:02;13.50;;;2.90;;
76863;SDS011;65834;52.364;9.754;2023-04-25T06:28:35;13.87;;;3.63;;
76863;SDS011;65834;52.364;9.754;2023-04-25T06:31:05;16.17;;;3.70;;
76863;SDS011;65834;52.364;9.754;2023-04-25T06:33:37;16.37;;;3.83;;
76863;SDS011;65834;52.364;9.754;2023-04-25T06:36:07;13.05;;;4.20;;
76863;SDS011;65834;52.364;9.754;2023-04-25T06:38:37;17.87;;;3.47;;
76863;SDS011;65834;52.364;9.754;2023-04-25T06:41:07;14.77;;;3.37;;
76863;SDS011;65834;52.364;9.754;2023-04-25T06:43:36;17.67;;;3.47;;
76863;SDS011;65834;52.364;9.754;2023-04-25T06:46:23;16.83;;;3.77;;
76863;SDS011;65834;52.364;9.754;2023-04-25T06:48:56;13.30;;;2.87;;
76863;SDS011;65834;52.364;9.754;2023-04-25T06:51:26;12.52;;;3.53;;
76863;SDS011;65834;52.364;9.754;2023-04-25T06:53:57;14.77;;;4.03;;
76863;SDS011;65834;52.364;9.754;2023-04-25T06:56:33;13.47;;;3.00;;
76863;SDS011;65834;52.364;9.754;2023-04-25T06:59:13;15.97;;;3.13;;
76863;SDS011;65834;52.364;9.754;2023-04-25T07:01:44;12.80;;;2.50;;
76863;SDS011;65834;52.364;9.754;2023-04-25T07:06:53;14.50;;;3.07;;
76863;SDS011;65834;52.364;9.754;2023-04-25T07:09:40;15.87;;;3.23;;
76863;SDS011;65834;52.364;9.754;2023-04-25T07:12:09;9.50;;;2.57;;
76863;SDS011;65834;52.364;9.754;2023-04-25T07:14:39;12.90;;;2.60;;
76863;SDS011;65834;52.364;9.754;2023-04-25T07:17:09;13.97;;;2.80;;
76863;SDS011;65834;52.364;9.754;2023-04-25T07:19:41;15.03;;;2.93;;
76863;SDS011;65834;52.364;9.754;2023-04-25T07:22:11;17.05;;;2.97;;
76863;SDS011;65834;52.364;9.754;2023-04-25T07:24:41;13.63;;;2.60;;
76863;SDS011;65834;52.364;9.754;2023-04-25T07:27:17;12.50;;;3.87;;
76863;SDS011;65834;52.364;9.754;2023-04-25T07:29:54;13.97;;;2.60;;
76863;SDS011;65834;52.364;9.754;2023-04-25T07:32:24;11.93;;;2.20;;
76863;SDS011;65834;52.364;9.754;2023-04-25T07:34:58;11.27;;;2.73;;
76863;SDS011;65834;52.364;9.754;2023-04-25T07:37:28;12.40;;;3.20;;
76863;SDS011;65834;52.364;9.754;2023-04-25T07:40:14;12.10;;;2.67;;
76863;SDS011;65834;52.364;9.754;2023-04-25T07:42:54;12.53;;;2.70;;
76863;SDS011;65834;52.364;9.754;2023-04-25T07:45:31;12.83;;;2.40;;
76863;SDS011;65834;52.364;9.754;2023-04-25T07:48:01;13.47;;;2.53;;
76863;SDS011;65834;52.364;9.754;2023-04-25T07:50:37;14.37;;;2.90;;
76863;SDS011;65834;52.364;9.754;2023-04-25T07:53:10;9.43;;;3.50;;
76863;SDS011;65834;52.364;9.754;2023-04-25T07:55:46;10.33;;;2.37;;
76863;SDS011;65834;52.364;9.754;2023-04-25T07:58:17;12.77;;;2.37;;
76863;SDS011;65834;52.364;9.754;2023-04-25T08:00:52;11.80;;;2.97;;
76863;SDS011;65834;52.364;9.754;2023-04-25T08:03:44;10.27;;;1.90;;
76863;SDS011;65834;52.364;9.754;2023-04-25T08:06:23;13.47;;;2.60;;
76863;SDS011;65834;52.364;9.754;2023-04-25T08:09:05;10.40;;;2.13;;
76863;SDS011;65834;52.364;9.754;2023-04-25T08:11:38;11.67;;;3.30;;
76863;SDS011;65834;52.364;9.754;2023-04-25T08:14:10;12.75;;;2.42;;
76863;SDS011;65834;52.364;9.754;2023-04-25T08:16:42;10.80;;;2.40;;
76863;SDS011;65834;52.364;9.754;2023-04-25T08:19:12;12.23;;;2.37;;
76863;SDS011;65834;52.364;9.754;2023-04-25T08:21:44;14.07;;;2.57;;
76863;SDS011;65834;52.364;9.754;2023-04-25T08:24:19;10.60;;;2.23;;
76863;SDS011;65834;52.364;9.754;2023-04-25T08:26:49;10.10;;;2.27;;
76863;SDS011;65834;52.364;9.754;2023-04-25T08:29:20;10.80;;;2.30;;
76863;SDS011;65834;52.364;9.754;2023-04-25T08:31:52;11.40;;;2.33;;
76863;SDS011;65834;52.364;9.754;2023-04-25T08:34:22;12.60;;;2.10;;
76863;SDS011;65834;52.364;9.754;2023-04-25T08:36:54;8.53;;;1.80;;
76863;SDS011;65834;52.364;9.754;2023-04-25T08:39:47;9.97;;;2.60;;
76863;SDS011;65834;52.364;9.754;2023-04-25T08:42:41;11.17;;;2.40;;
76863;SDS011;65834;52.364;9.754;2023-04-25T08:45:12;13.07;;;2.20;;
76863;SDS011;65834;52.364;9.754;2023-04-25T08:47:42;9.63;;;1.70;;
76863;SDS011;65834;52.364;9.754;2023-04-25T08:52:50;9.15;;;1.92;;
76863;SDS011;65834;52.364;9.754;2023-04-25T08:55:24;9.20;;;1.80;;
76863;SDS011;65834;52.364;9.754;2023-04-25T08:57:57;10.67;;;2.00;;
76863;SDS011;65834;52.364;9.754;2023-04-25T09:00:29;8.47;;;2.33;;
76863;SDS011;65834;52.364;9.754;2023-04-25T09:02:59;7.77;;;2.10;;
76863;SDS011;65834;52.364;9.754;2023-04-25T09:05:32;12.45;;;2.08;;
76863;SDS011;65834;52.364;9.754;2023-04-25T09:08:04;9.30;;;3.10;;
76863;SDS011;65834;52.364;9.754;2023-04-25T09:10:34;9.68;;;2.35;;
76863;SDS011;65834;52.364;9.754;2023-04-25T09:13:05;8.90;;;1.73;;
76863;SDS011;65834;52.364;9.754;2023-04-25T09:16:08;11.03;;;1.97;;
76863;SDS011;65834;52.364;9.754;2023-04-25T09:18:52;8.27;;;1.50;;
76863;SDS011;65834;52.364;9.754;2023-04-25T09:21:22;6.53;;;1.50;;
76863;SDS011;65834;52.364;9.754;2023-04-25T09:23:55;9.97;;;2.10;;
76863;SDS011;65834;52.364;9.754;2023-04-25T09:26:27;7.60;;;1.40;;
76863;SDS011;65834;52.364;9.754;2023-04-25T09:29:04;8.13;;;2.33;;
76863;SDS011;65834;52.364;9.754;2023-04-25T09:31:39;7.63;;;1.63;;
76863;SDS011;65834;52.364;9.754;2023-04-25T09:34:10;8.13;;;1.73;;
76863;SDS011;65834;52.364;9.754;2023-04-25T09:36:47;7.90;;;1.80;;
76863;SDS011;65834;52.364;9.754;2023-04-25T09:39:46;5.23;;;1.27;;
76863;SDS011;65834;52.364;9.754;2023-04-25T09:42:17;5.07;;;1.20;;
76863;SDS011;65834;52.364;9.754;2023-04-25T09:44:51;5.13;;;1.37;;
76863;SDS011;65834;52.364;9.754;2023-04-25T09:47:22;9.50;;;1.80;;
76863;SDS011;65834;52.364;9.754;2023-04-25T09:49:54;8.07;;;1.70;;
76863;SDS011;65834;52.364;9.754;2023-04-25T09:52:25;6.57;;;1.97;;
76863;SDS011;65834;52.364;9.754;2023-04-25T09:55:14;10.60;;;1.97;;
76863;SDS011;65834;52.364;9.754;2023-04-25T09:57:44;11.70;;;1.70;;
76863;SDS011;65834;52.364;9.754;2023-04-25T10:00:19;9.53;;;2.27;;
76863;SDS011;65834;52.364;9.754;2023-04-25T10:02:50;5.60;;;1.50;;
76863;SDS011;65834;52.364;9.754;2023-04-25T10:05:41;6.90;;;1.63;;
76863;SDS011;65834;52.364;9.754;2023-04-25T10:08:12;7.13;;;1.70;;
76863;SDS011;65834;52.364;9.754;2023-04-25T10:10:45;7.60;;;1.40;;
76863;SDS011;65834;52.364;9.754;2023-04-25T10:13:17;6.53;;;1.53;;
76863;SDS011;65834;52.364;9.754;2023-04-25T10:15:47;7.80;;;1.93;;
76863;SDS011;65834;52.364;9.754;2023-04-25T10:18:18;5.50;;;1.90;;
76863;SDS011;65834;52.364;9.754;2023-04-25T10:20:48;8.50;;;1.80;;
76863;SDS011;65834;52.364;9.754;2023-04-25T10:23:19;7.70;;;1.43;;
76863;SDS011;65834;52.364;9.754;2023-04-25T10:25:52;7.40;;;1.60;;
76863;SDS011;65834;52.364;9.754;2023-04-25T10:28:22;6.90;;;2.30;;
76863;SDS011;65834;52.364;9.754;2023-04-25T10:30:58;6.93;;;1.50;;
76863;SDS011;65834;52.364;9.754;2023-04-25T10:33:33;10.10;;;1.90;;
76863;SDS011;65834;52.364;9.754;2023-04-25T10:36:11;8.00;;;1.60;;
76863;SDS011;65834;52.364;9.754;2023-04-25T10:38:41;5.67;;;1.50;;
76863;SDS011;65834;52.364;9.754;2023-04-25T10:41:14;5.87;;;1.53;;
76863;SDS011;65834;52.364;9.754;2023-04-25T10:43:47;7.63;;;1.87;;
76863;SDS011;65834;52.364;9.754;2023-04-25T10:46:18;8.47;;;2.20;;
76863;SDS011;65834;52.364;9.754;2023-04-25T10:48:51;10.57;;;2.10;;
76863;SDS011;65834;52.364;9.754;2023-04-25T10:51:23;7.80;;;1.90;;
76863;SDS011;65834;52.364;9.754;2023-04-25T10:53:56;6.97;;;1.73;;
76863;SDS011;65834;52.364;9.754;2023-04-25T10:56:30;6.47;;;1.60;;
76863;SDS011;65834;52.364;9.754;2023-04-25T10:59:05;7.17;;;1.77;;
76863;SDS011;65834;52.364;9.754;2023-04-25T11:01:38;9.13;;;1.63;;
76863;SDS011;65834;52.364;9.754;2023-04-25T11:04:21;6.70;;;1.23;;
76863;SDS011;65834;52.364;9.754;2023-04-25T11:09:32;10.20;;;1.77;;
76863;SDS011;65834;52.364;9.754;2023-04-25T11:12:04;7.87;;;1.87;;
76863;SDS011;65834;52.364;9.754;2023-04-25T11:14:38;6.17;;;1.60;;
76863;SDS011;65834;52.364;9.754;2023-04-25T11:17:08;9.50;;;1.63;;
76863;SDS011;65834;52.364;9.754;2023-04-25T11:19:38;7.03;;;1.90;;
76863;SDS011;65834;52.364;9.754;2023-04-25T11:22:08;6.43;;;1.70;;
76863;SDS011;65834;52.364;9.754;2023-04-25T11:24:39;6.20;;;1.73;;
76863;SDS011;65834;52.364;9.754;2023-04-25T11:27:11;5.67;;;1.90;;
76863;SDS011;65834;52.364;9.754;2023-04-25T11:29:41;7.75;;;1.83;;
76863;SDS011;65834;52.364;9.754;2023-04-25T11:32:11;7.90;;;1.80;;
76863;SDS011;65834;52.364;9.754;2023-04-25T11:34:42;6.43;;;1.60;;
76863;SDS011;65834;52.364;9.754;2023-04-25T11:37:13;8.38;;;2.10;;
76863;SDS011;65834;52.364;9.754;2023-04-25T11:39:43;10.27;;;2.10;;
76863;SDS011;65834;52.364;9.754;2023-04-25T11:42:17;9.40;;;1.93;;
76863;SDS011;65834;52.364;9.754;2023-04-25T11:44:46;6.88;;;1.40;;
76863;SDS011;65834;52.364;9.754;2023-04-25T11:47:16;6.17;;;1.87;;
76863;SDS011;65834;52.364;9.754;2023-04-25T11:49:46;8.63;;;1.93;;
76863;SDS011;65834;52.364;9.754;2023-04-25T11:52:15;6.23;;;1.70;;
76863;SDS011;65834;52.364;9.754;2023-04-25T11:54:46;9.67;;;2.77;;
76863;SDS011;65834;52.364;9.754;2023-04-25T11:57:21;6.50;;;2.00;;
76863;SDS011;65834;52.364;9.754;2023-04-25T11:59:51;9.82;;;2.40;;
76863;SDS011;65834;52.364;9.754;2023-04-25T12:02:24;9.60;;;1.90;;
76863;SDS011;65834;52.364;9.754;2023-04-25T12:04:58;6.60;;;1.83;;
76863;SDS011;65834;52.364;9.754;2023-04-25T12:07:47;7.75;;;1.75;;
76863;SDS011;65834;52.364;9.754;2023-04-25T12:10:17;11.53;;;1.87;;
76863;SDS011;65834;52.364;9.754;2023-04-25T12:12:50;7.63;;;1.87;;
76863;SDS011;65834;52.364;9.754;2023-04-25T12:15:23;9.10;;;2.07;;
76863;SDS011;65834;52.364;9.754;2023-04-25T12:17:54;7.53;;;1.60;;
76863;SDS011;65834;52.364;9.754;2023-04-25T12:20:24;4.47;;;1.50;;
76863;SDS011;65834;52.364;9.754;2023-04-25T12:22:54;5.40;;;1.70;;
76863;SDS011;65834;52.364;9.754;2023-04-25T12:25:34;3.50;;;1.30;;
76863;SDS011;65834;52.364;9.754;2023-04-25T12:28:14;2.40;;;1.03;;
76863;SDS011;65834;52.364;9.754;2023-04-25T12:30:52;3.50;;;0.93;;
76863;SDS011;65834;52.364;9.754;2023-04-25T12:33:28;2.77;;;0.90;;
76863;SDS011;65834;52.364;9.754;2023-04-25T12:35:59;5.77;;;1.27;;
76863;SDS011;65834;52.364;9.754;2023-04-25T12:38:36;5.03;;;1.13;;
76863;SDS011;65834;52.364;9.754;2023-04-25T12:41:06;5.90;;;1.40;;
76863;SDS011;65834;52.364;9.754;2023-04-25T12:43:39;4.77;;;0.97;;
76863;SDS011;65834;52.364;9.754;2023-04-25T12:46:09;3.47;;;1.23;;
76863;SDS011;65834;52.364;9.754;2023-04-25T12:48:38;5.33;;;1.20;;
76863;SDS011;65834;52.364;9.754;2023-04-25T12:51:08;2.63;;;0.90;;
76863;SDS011;65834;52.364;9.754;2023-04-25T12:53:37;2.87;;;0.90;;
76863;SDS011;65834;52.364;9.754;2023-04-25T12:56:07;6.10;;;1.00;;
76863;SDS011;65834;52.364;9.754;2023-04-25T12:58:39;3.40;;;1.13;;
76863;SDS011;65834;52.364;9.754;2023-04-25T13:01:10;2.13;;;0.67;;
76863;SDS011;65834;52.364;9.754;2023-04-25T13:03:41;4.10;;;0.70;;
76863;SDS011;65834;52.364;9.754;2023-04-25T13:06:11;5.87;;;1.23;;
76863;SDS011;65834;52.364;9.754;2023-04-25T13:08:41;3.80;;;1.10;;
76863;SDS011;65834;52.364;9.754;2023-04-25T13:11:11;3.93;;;1.13;;
76863;SDS011;65834;52.364;9.754;2023-04-25T13:13:44;4.23;;;1.17;;
76863;SDS011;65834;52.364;9.754;2023-04-25T13:16:14;4.13;;;1.20;;
76863;SDS011;65834;52.364;9.754;2023-04-25T13:21:16;4.77;;;1.30;;
76863;SDS011;65834;52.364;9.754;2023-04-25T13:23:46;2.87;;;1.10;;
76863;SDS011;65834;52.364;9.754;2023-04-25T13:26:16;4.43;;;1.23;;
76863;SDS011;65834;52.364;9.754;2023-04-25T13:28:48;6.13;;;1.27;;
76863;SDS011;65834;52.364;9.754;2023-04-25T13:31:18;8.20;;;1.60;;
76863;SDS011;65834;52.364;9.754;2023-04-25T13:33:47;4.93;;;1.30;;
76863;SDS011;65834;52.364;9.754;2023-04-25T13:36:17;4.83;;;1.40;;
76863;SDS011;65834;52.364;9.754;2023-04-25T13:38:47;10.87;;;1.70;;
76863;SDS011;65834;52.364;9.754;2023-04-25T13:41:17;6.73;;;1.43;;
76863;SDS011;65834;52.364;9.754;2023-04-25T13:43:49;2.90;;;1.43;;
76863;SDS011;65834;52.364;9.754;2023-04-25T13:46:19;6.63;;;1.50;;
76863;SDS011;65834;52.364;9.754;2023-04-25T13:48:51;6.95;;;1.35;;
76863;SDS011;65834;52.364;9.754;2023-04-25T13:51:25;8.57;;;1.63;;
76863;SDS011;65834;52.364;9.754;2023-04-25T13:53:56;6.93;;;1.40;;
76863;SDS011;65834;52.364;9.754;2023-04-25T13:56:26;8.83;;;3.83;;
76863;SDS011;65834;52.364;9.754;2023-04-25T13:58:58;6.77;;;1.87;;
76863;SDS011;65834;52.364;9.754;2023-04-25T14:01:28;4.47;;;1.58;;
76863;SDS011;65834;52.364;9.754;2023-04-25T14:06:31;5.10;;;1.50;;
76863;SDS011;65834;52.364;9.754;2023-04-25T14:09:00;4.37;;;1.40;;
76863;SDS011;65834;52.364;9.754;2023-04-25T14:11:30;6.67;;;1.50;;
76863;SDS011;65834;52.364;9.754;2023-04-25T14:14:03;5.00;;;1.57;;
76863;SDS011;65834;52.364;9.754;2023-04-25T14:16:33;6.07;;;1.98;;
76863;SDS011;65834;52.364;9.754;2023-04-25T14:19:03;7.60;;;1.67;;
76863;SDS011;65834;52.364;9.754;2023-04-25T14:21:33;4.93;;;1.50;;
76863;SDS011;65834;52.364;9.754;2023-04-25T14:24:02;3.70;;;1.40;;
76863;SDS011;65834;52.364;9.754;2023-04-25T14:26:33;6.17;;;1.60;;
76863;SDS011;65834;52.364;9.754;2023-04-25T14:29:06;5.13;;;1.43;;
76863;SDS011;65834;52.364;9.754;2023-04-25T14:31:38;8.63;;;1.90;;
76863;SDS011;65834;52.364;9.754;2023-04-25T14:34:08;7.20;;;1.87;;
76863;SDS011;65834;52.364;9.754;2023-04-25T14:36:38;6.30;;;1.67;;
76863;SDS011;65834;52.364;9.754;2023-04-25T14:39:08;7.00;;;2.03;;
76863;SDS011;65834;52.364;9.754;2023-04-25T14:41:40;5.72;;;1.48;;
76863;SDS011;65834;52.364;9.754;2023-04-25T14:44:12;8.00;;;1.50;;
76863;SDS011;65834;52.364;9.754;2023-04-25T14:46:42;4.35;;;1.30;;
76863;SDS011;65834;52.364;9.754;2023-04-25T14:49:11;5.43;;;1.20;;
76863;SDS011;65834;52.364;9.754;2023-04-25T14:51:41;4.07;;;1.07;;
76863;SDS011;65834;52.364;9.754;2023-04-25T14:54:10;5.90;;;1.43;;
76863;SDS011;65834;52.364;9.754;2023-04-25T14:56:41;7.53;;;1.57;;
76863;SDS011;65834;52.364;9.754;2023-04-25T14:59:13;5.67;;;1.30;;
76863;SDS011;65834;52.364;9.754;2023-04-25T15:01:42;9.35;;;1.55;;
76863;SDS011;65834;52.364;9.754;2023-04-25T15:04:12;4.90;;;1.30;;
76863;SDS011;65834;52.364;9.754;2023-04-25T15:06:43;7.07;;;1.53;;
76863;SDS011;65834;52.364;9.754;2023-04-25T15:09:13;5.87;;;1.50;;
76863;SDS011;65834;52.364;9.754;2023-04-25T15:11:44;8.43;;;1.83;;
76863;SDS011;65834;52.364;9.754;2023-04-25T15:14:17;4.90;;;1.30;;
76863;SDS011;65834;52.364;9.754;2023-04-25T15:16:46;5.57;;;1.80;;
76863;SDS011;65834;52.364;9.754;2023-04-25T15:19:16;6.77;;;1.80;;
76863;SDS011;65834;52.364;9.754;2023-04-25T15:21:46;6.73;;;2.00;;
76863;SDS011;65834;52.364;9.754;2023-04-25T15:24:16;5.30;;;1.60;;
76863;SDS011;65834;52.364;9.754;2023-04-25T15:26:45;6.03;;;1.60;;
76863;SDS011;65834;52.364;9.754;2023-04-25T15:29:17;5.33;;;1.30;;
76863;SDS011;65834;52.364;9.754;2023-04-25T15:31:47;7.15;;;1.70;;
76863;SDS011;65834;52.364;9.754;2023-04-25T15:34:17;6.40;;;1.67;;
76863;SDS011;65834;52.364;9.754;2023-04-25T15:36:47;6.07;;;1.80;;
76863;SDS011;65834;52.364;9.754;2023-04-25T15:39:17;6.93;;;1.57;;
76863;SDS011;65834;52.364;9.754;2023-04-25T15:41:46;7.40;;;1.83;;